sensor_id;sensor_type;location;lat;lon;timestamp;P1;durP1;ratioP1;P2;durP2;ratioP2
33864;SDS011;20159;51.072;13.526;2022-11-25T00:00:52;8.20;;;5.53;;
33864;SDS011;20159;51.072;13.526;2022-11-25T00:03:18;8.07;;;5.93;;
33864;SDS011;20159;51.072;13.526;2022-11-25T00:05:44;10.13;;;5.90;;
33864;SDS011;20159;51.072;13.526;2022-11-25T00:08:10;9.95;;;5.85;;
33864;SDS011;20159;51.072;13.526;2022-11-25T00:10:35;9.98;;;5.97;;
33864;SDS011;20159;51.072;13.526;2022-11-25T00:13:01;9.15;;;5.75;;
33864;SDS011;20159;51.072;13.526;2022-11-25T00:15:27;13.35;;;5.85;;
33864;SDS011;20159;51.072;13.526;2022-11-25T00:17:53;7.07;;;5.38;;
33864;SDS011;20159;51.072;13.526;2022-11-25T00:20:18;11.57;;;5.90;;
33864;SDS011;20159;51.072;13.526;2022-11-25T00:22:45;10.23;;;5.38;;
33864;SDS011;20159;51.072;13.526;2022-11-25T00:25:11;7.68;;;5.00;;
33864;SDS011;20159;51.072;13.526;2022-11-25T00:27:36;6.50;;;5.18;;
33864;SDS011;20159;51.072;13.526;2022-11-25T00:30:02;9.98;;;5.90;;
33864;SDS011;20159;51.072;13.526;2022-11-25T00:32:29;8.00;;;5.35;;
33864;SDS011;20159;51.072;13.526;2022-11-25T00:34:54;9.73;;;4.90;;
33864;SDS011;20159;51.072;13.526;2022-11-25T00:37:20;7.13;;;5.10;;
33864;SDS011;20159;51.072;13.526;2022-11-25T00:39:45;10.10;;;5.78;;
33864;SDS011;20159;51.072;13.526;2022-11-25T00:42:11;6.43;;;5.18;;
33864;SDS011;20159;51.072;13.526;2022-11-25T00:44:55;7.40;;;5.20;;
33864;SDS011;20159;51.072;13.526;2022-11-25T00:47:20;6.00;;;5.32;;
33864;SDS011;20159;51.072;13.526;2022-11-25T00:49:47;6.63;;;5.53;;
33864;SDS011;20159;51.072;13.526;2022-11-25T00:52:16;6.10;;;4.95;;
33864;SDS011;20159;51.072;13.526;2022-11-25T00:54:51;7.75;;;5.00;;
33864;SDS011;20159;51.072;13.526;2022-11-25T00:57:18;7.68;;;5.18;;
33864;SDS011;20159;51.072;13.526;2022-11-25T00:59:45;6.72;;;4.65;;
33864;SDS011;20159;51.072;13.526;2022-11-25T01:02:11;6.30;;;4.95;;
33864;SDS011;20159;51.072;13.526;2022-11-25T01:04:38;9.85;;;5.43;;
33864;SDS011;20159;51.072;13.526;2022-11-25T01:07:04;8.20;;;5.35;;
33864;SDS011;20159;51.072;13.526;2022-11-25T01:09:30;7.57;;;5.18;;
33864;SDS011;20159;51.072;13.526;2022-11-25T01:11:55;7.90;;;5.68;;
33864;SDS011;20159;51.072;13.526;2022-11-25T01:14:22;7.45;;;5.78;;
33864;SDS011;20159;51.072;13.526;2022-11-25T01:16:48;7.70;;;5.68;;
33864;SDS011;20159;51.072;13.526;2022-11-25T01:19:15;9.13;;;5.10;;
33864;SDS011;20159;51.072;13.526;2022-11-25T01:21:41;7.63;;;5.25;;
33864;SDS011;20159;51.072;13.526;2022-11-25T01:24:07;6.32;;;4.85;;
33864;SDS011;20159;51.072;13.526;2022-11-25T01:26:35;8.18;;;5.05;;
33864;SDS011;20159;51.072;13.526;2022-11-25T01:29:03;6.93;;;5.07;;
33864;SDS011;20159;51.072;13.526;2022-11-25T01:31:31;6.93;;;4.97;;
33864;SDS011;20159;51.072;13.526;2022-11-25T01:34:00;9.60;;;4.93;;
33864;SDS011;20159;51.072;13.526;2022-11-25T01:36:36;7.18;;;5.13;;
33864;SDS011;20159;51.072;13.526;2022-11-25T01:39:02;6.95;;;4.80;;
33864;SDS011;20159;51.072;13.526;2022-11-25T01:41:29;7.65;;;4.60;;
33864;SDS011;20159;51.072;13.526;2022-11-25T01:44:03;6.88;;;4.35;;
33864;SDS011;20159;51.072;13.526;2022-11-25T01:49:14;6.90;;;4.40;;
33864;SDS011;20159;51.072;13.526;2022-11-25T01:54:49;7.95;;;5.22;;
33864;SDS011;20159;51.072;13.526;2022-11-25T01:57:39;6.95;;;4.28;;
33864;SDS011;20159;51.072;13.526;2022-11-25T02:00:09;9.02;;;4.70;;
33864;SDS011;20159;51.072;13.526;2022-11-25T02:02:35;7.80;;;5.15;;
33864;SDS011;20159;51.072;13.526;2022-11-25T02:05:02;7.00;;;5.13;;
33864;SDS011;20159;51.072;13.526;2022-11-25T02:07:37;6.03;;;4.13;;
33864;SDS011;20159;51.072;13.526;2022-11-25T02:10:13;8.23;;;4.85;;
33864;SDS011;20159;51.072;13.526;2022-11-25T02:12:42;14.10;;;4.50;;
33864;SDS011;20159;51.072;13.526;2022-11-25T02:15:09;7.78;;;4.50;;
33864;SDS011;20159;51.072;13.526;2022-11-25T02:17:36;6.20;;;4.38;;
33864;SDS011;20159;51.072;13.526;2022-11-25T02:20:12;9.07;;;4.38;;
33864;SDS011;20159;51.072;13.526;2022-11-25T02:22:49;6.45;;;4.28;;
33864;SDS011;20159;51.072;13.526;2022-11-25T02:25:35;6.35;;;3.97;;
33864;SDS011;20159;51.072;13.526;2022-11-25T02:28:07;8.70;;;3.88;;
33864;SDS011;20159;51.072;13.526;2022-11-25T02:30:42;6.43;;;4.07;;
33864;SDS011;20159;51.072;13.526;2022-11-25T02:33:08;10.48;;;4.13;;
33864;SDS011;20159;51.072;13.526;2022-11-25T02:35:35;7.13;;;4.15;;
33864;SDS011;20159;51.072;13.526;2022-11-25T02:38:13;8.95;;;4.75;;
33864;SDS011;20159;51.072;13.526;2022-11-25T02:40:44;6.20;;;4.78;;
33864;SDS011;20159;51.072;13.526;2022-11-25T02:43:17;6.95;;;4.88;;
33864;SDS011;20159;51.072;13.526;2022-11-25T02:45:48;9.27;;;4.57;;
33864;SDS011;20159;51.072;13.526;2022-11-25T02:48:23;6.53;;;4.50;;
33864;SDS011;20159;51.072;13.526;2022-11-25T02:50:49;7.15;;;4.63;;
33864;SDS011;20159;51.072;13.526;2022-11-25T02:53:14;6.82;;;4.53;;
33864;SDS011;20159;51.072;13.526;2022-11-25T02:55:40;9.77;;;4.65;;
33864;SDS011;20159;51.072;13.526;2022-11-25T02:58:06;7.65;;;4.65;;
33864;SDS011;20159;51.072;13.526;2022-11-25T03:00:32;7.90;;;4.45;;
33864;SDS011;20159;51.072;13.526;2022-11-25T03:02:58;8.07;;;4.03;;
33864;SDS011;20159;51.072;13.526;2022-11-25T03:05:23;6.85;;;4.50;;
33864;SDS011;20159;51.072;13.526;2022-11-25T03:07:49;8.65;;;4.57;;
33864;SDS011;20159;51.072;13.526;2022-11-25T03:10:15;5.45;;;4.00;;
33864;SDS011;20159;51.072;13.526;2022-11-25T03:12:40;7.10;;;3.95;;
33864;SDS011;20159;51.072;13.526;2022-11-25T03:15:06;6.30;;;4.18;;
33864;SDS011;20159;51.072;13.526;2022-11-25T03:17:32;7.05;;;3.95;;
33864;SDS011;20159;51.072;13.526;2022-11-25T03:19:58;6.70;;;4.15;;
33864;SDS011;20159;51.072;13.526;2022-11-25T03:22:23;5.95;;;4.15;;
33864;SDS011;20159;51.072;13.526;2022-11-25T03:24:49;5.85;;;4.00;;
33864;SDS011;20159;51.072;13.526;2022-11-25T03:27:15;5.82;;;3.78;;
33864;SDS011;20159;51.072;13.526;2022-11-25T03:29:41;7.10;;;4.22;;
33864;SDS011;20159;51.072;13.526;2022-11-25T03:32:06;7.35;;;3.83;;
33864;SDS011;20159;51.072;13.526;2022-11-25T03:34:32;9.48;;;4.10;;
33864;SDS011;20159;51.072;13.526;2022-11-25T03:36:57;5.50;;;3.58;;
33864;SDS011;20159;51.072;13.526;2022-11-25T03:39:23;7.65;;;4.18;;
33864;SDS011;20159;51.072;13.526;2022-11-25T03:41:49;8.43;;;3.90;;
33864;SDS011;20159;51.072;13.526;2022-11-25T03:44:14;10.95;;;4.25;;
33864;SDS011;20159;51.072;13.526;2022-11-25T03:46:40;4.35;;;3.72;;
33864;SDS011;20159;51.072;13.526;2022-11-25T03:49:05;8.88;;;4.35;;
33864;SDS011;20159;51.072;13.526;2022-11-25T03:51:31;8.70;;;4.43;;
33864;SDS011;20159;51.072;13.526;2022-11-25T03:53:57;7.18;;;4.25;;
33864;SDS011;20159;51.072;13.526;2022-11-25T03:56:22;7.20;;;4.03;;
33864;SDS011;20159;51.072;13.526;2022-11-25T03:58:48;5.90;;;3.58;;
33864;SDS011;20159;51.072;13.526;2022-11-25T04:01:13;6.45;;;3.80;;
33864;SDS011;20159;51.072;13.526;2022-11-25T04:03:39;5.35;;;3.40;;
33864;SDS011;20159;51.072;13.526;2022-11-25T04:06:04;7.35;;;3.70;;
33864;SDS011;20159;51.072;13.526;2022-11-25T04:08:30;6.63;;;3.67;;
33864;SDS011;20159;51.072;13.526;2022-11-25T04:10:56;6.15;;;3.42;;
33864;SDS011;20159;51.072;13.526;2022-11-25T04:13:21;7.65;;;3.90;;
33864;SDS011;20159;51.072;13.526;2022-11-25T04:15:48;6.18;;;3.30;;
33864;SDS011;20159;51.072;13.526;2022-11-25T04:18:14;6.68;;;3.28;;
33864;SDS011;20159;51.072;13.526;2022-11-25T04:20:42;9.73;;;4.38;;
33864;SDS011;20159;51.072;13.526;2022-11-25T04:23:08;6.53;;;3.60;;
33864;SDS011;20159;51.072;13.526;2022-11-25T04:25:36;7.20;;;3.45;;
33864;SDS011;20159;51.072;13.526;2022-11-25T04:28:02;6.68;;;3.95;;
33864;SDS011;20159;51.072;13.526;2022-11-25T04:30:29;8.25;;;3.55;;
33864;SDS011;20159;51.072;13.526;2022-11-25T04:32:54;7.40;;;3.67;;
33864;SDS011;20159;51.072;13.526;2022-11-25T04:35:20;7.40;;;3.65;;
33864;SDS011;20159;51.072;13.526;2022-11-25T04:37:46;5.70;;;3.78;;
33864;SDS011;20159;51.072;13.526;2022-11-25T04:40:12;6.18;;;3.45;;
33864;SDS011;20159;51.072;13.526;2022-11-25T04:42:37;5.82;;;3.55;;
33864;SDS011;20159;51.072;13.526;2022-11-25T04:45:08;4.43;;;3.22;;
33864;SDS011;20159;51.072;13.526;2022-11-25T04:47:35;5.88;;;3.45;;
33864;SDS011;20159;51.072;13.526;2022-11-25T04:50:02;6.90;;;3.92;;
33864;SDS011;20159;51.072;13.526;2022-11-25T04:52:28;6.95;;;3.50;;
33864;SDS011;20159;51.072;13.526;2022-11-25T04:54:54;5.80;;;3.40;;
33864;SDS011;20159;51.072;13.526;2022-11-25T04:57:20;5.63;;;3.65;;
33864;SDS011;20159;51.072;13.526;2022-11-25T04:59:46;6.50;;;3.65;;
33864;SDS011;20159;51.072;13.526;2022-11-25T05:02:21;6.97;;;3.72;;
33864;SDS011;20159;51.072;13.526;2022-11-25T05:04:52;6.03;;;3.17;;
33864;SDS011;20159;51.072;13.526;2022-11-25T05:07:19;4.55;;;3.35;;
33864;SDS011;20159;51.072;13.526;2022-11-25T05:09:46;6.53;;;3.45;;
33864;SDS011;20159;51.072;13.526;2022-11-25T05:12:13;5.43;;;3.50;;
33864;SDS011;20159;51.072;13.526;2022-11-25T05:14:41;6.18;;;3.55;;
33864;SDS011;20159;51.072;13.526;2022-11-25T05:17:07;6.32;;;3.45;;
33864;SDS011;20159;51.072;13.526;2022-11-25T05:19:38;8.10;;;3.47;;
33864;SDS011;20159;51.072;13.526;2022-11-25T05:22:04;7.97;;;3.67;;
33864;SDS011;20159;51.072;13.526;2022-11-25T05:24:29;5.32;;;3.25;;
33864;SDS011;20159;51.072;13.526;2022-11-25T05:26:55;6.15;;;3.30;;
33864;SDS011;20159;51.072;13.526;2022-11-25T05:29:20;6.13;;;3.67;;
33864;SDS011;20159;51.072;13.526;2022-11-25T05:31:46;8.32;;;4.10;;
33864;SDS011;20159;51.072;13.526;2022-11-25T05:34:11;6.50;;;3.45;;
33864;SDS011;20159;51.072;13.526;2022-11-25T05:36:37;6.00;;;3.10;;
33864;SDS011;20159;51.072;13.526;2022-11-25T05:39:02;5.28;;;3.20;;
33864;SDS011;20159;51.072;13.526;2022-11-25T05:41:28;8.98;;;3.15;;
33864;SDS011;20159;51.072;13.526;2022-11-25T05:43:54;4.28;;;3.10;;
33864;SDS011;20159;51.072;13.526;2022-11-25T05:46:19;7.80;;;3.53;;
33864;SDS011;20159;51.072;13.526;2022-11-25T05:48:45;8.00;;;3.47;;
33864;SDS011;20159;51.072;13.526;2022-11-25T05:51:10;5.47;;;3.17;;
33864;SDS011;20159;51.072;13.526;2022-11-25T05:53:36;7.75;;;3.80;;
33864;SDS011;20159;51.072;13.526;2022-11-25T05:56:03;5.97;;;4.15;;
33864;SDS011;20159;51.072;13.526;2022-11-25T05:58:31;6.32;;;3.75;;
33864;SDS011;20159;51.072;13.526;2022-11-25T06:00:57;7.63;;;3.45;;
33864;SDS011;20159;51.072;13.526;2022-11-25T06:03:26;5.47;;;3.10;;
33864;SDS011;20159;51.072;13.526;2022-11-25T06:05:56;5.45;;;3.25;;
33864;SDS011;20159;51.072;13.526;2022-11-25T06:08:23;6.43;;;3.90;;
33864;SDS011;20159;51.072;13.526;2022-11-25T06:10:49;5.43;;;3.63;;
33864;SDS011;20159;51.072;13.526;2022-11-25T06:13:15;5.90;;;3.75;;
33864;SDS011;20159;51.072;13.526;2022-11-25T06:15:42;5.25;;;3.42;;
33864;SDS011;20159;51.072;13.526;2022-11-25T06:18:09;6.13;;;3.63;;
33864;SDS011;20159;51.072;13.526;2022-11-25T06:20:35;4.72;;;3.40;;
33864;SDS011;20159;51.072;13.526;2022-11-25T06:23:01;5.32;;;3.60;;
33864;SDS011;20159;51.072;13.526;2022-11-25T06:25:26;4.63;;;3.42;;
33864;SDS011;20159;51.072;13.526;2022-11-25T06:27:52;6.85;;;3.80;;
33864;SDS011;20159;51.072;13.526;2022-11-25T06:30:18;8.15;;;3.83;;
33864;SDS011;20159;51.072;13.526;2022-11-25T06:32:44;6.85;;;4.05;;
33864;SDS011;20159;51.072;13.526;2022-11-25T06:35:09;7.20;;;4.30;;
33864;SDS011;20159;51.072;13.526;2022-11-25T06:37:35;6.15;;;4.13;;
33864;SDS011;20159;51.072;13.526;2022-11-25T06:40:01;6.45;;;4.30;;
33864;SDS011;20159;51.072;13.526;2022-11-25T06:42:28;7.55;;;4.50;;
33864;SDS011;20159;51.072;13.526;2022-11-25T06:44:54;8.15;;;4.30;;
33864;SDS011;20159;51.072;13.526;2022-11-25T06:47:19;6.07;;;4.07;;
33864;SDS011;20159;51.072;13.526;2022-11-25T06:49:45;8.32;;;4.60;;
33864;SDS011;20159;51.072;13.526;2022-11-25T06:52:10;8.60;;;4.70;;
33864;SDS011;20159;51.072;13.526;2022-11-25T06:54:36;8.93;;;4.97;;
33864;SDS011;20159;51.072;13.526;2022-11-25T06:57:05;7.82;;;5.13;;
33864;SDS011;20159;51.072;13.526;2022-11-25T06:59:34;8.43;;;4.70;;
33864;SDS011;20159;51.072;13.526;2022-11-25T07:02:00;9.20;;;4.97;;
33864;SDS011;20159;51.072;13.526;2022-11-25T07:04:26;8.93;;;4.88;;
33864;SDS011;20159;51.072;13.526;2022-11-25T07:06:52;7.15;;;5.28;;
33864;SDS011;20159;51.072;13.526;2022-11-25T07:09:18;8.55;;;5.22;;
33864;SDS011;20159;51.072;13.526;2022-11-25T07:11:44;8.77;;;6.05;;
33864;SDS011;20159;51.072;13.526;2022-11-25T07:14:11;9.73;;;5.60;;
33864;SDS011;20159;51.072;13.526;2022-11-25T07:16:38;11.25;;;6.55;;
33864;SDS011;20159;51.072;13.526;2022-11-25T07:19:05;9.80;;;6.45;;
33864;SDS011;20159;51.072;13.526;2022-11-25T07:21:31;43.85;;;11.65;;
33864;SDS011;20159;51.072;13.526;2022-11-25T07:23:59;17.40;;;8.60;;
33864;SDS011;20159;51.072;13.526;2022-11-25T07:26:27;9.35;;;6.47;;
33864;SDS011;20159;51.072;13.526;2022-11-25T07:28:54;9.40;;;6.35;;
33864;SDS011;20159;51.072;13.526;2022-11-25T07:31:30;25.50;;;8.88;;
33864;SDS011;20159;51.072;13.526;2022-11-25T07:33:58;28.95;;;9.73;;
33864;SDS011;20159;51.072;13.526;2022-11-25T07:36:29;11.45;;;7.00;;
33864;SDS011;20159;51.072;13.526;2022-11-25T07:38:57;8.45;;;6.05;;
33864;SDS011;20159;51.072;13.526;2022-11-25T07:41:25;16.90;;;7.18;;
33864;SDS011;20159;51.072;13.526;2022-11-25T07:43:52;38.05;;;10.55;;
33864;SDS011;20159;51.072;13.526;2022-11-25T07:46:24;7.88;;;5.10;;
33864;SDS011;20159;51.072;13.526;2022-11-25T07:48:50;14.85;;;6.50;;
33864;SDS011;20159;51.072;13.526;2022-11-25T07:51:17;7.18;;;4.80;;
33864;SDS011;20159;51.072;13.526;2022-11-25T07:53:52;7.70;;;5.25;;
33864;SDS011;20159;51.072;13.526;2022-11-25T07:56:18;8.27;;;4.82;;
33864;SDS011;20159;51.072;13.526;2022-11-25T07:58:45;21.05;;;5.90;;
33864;SDS011;20159;51.072;13.526;2022-11-25T08:01:12;6.55;;;4.15;;
33864;SDS011;20159;51.072;13.526;2022-11-25T08:03:39;6.57;;;4.07;;
33864;SDS011;20159;51.072;13.526;2022-11-25T08:06:08;7.78;;;4.15;;
33864;SDS011;20159;51.072;13.526;2022-11-25T08:08:36;6.47;;;3.67;;
33864;SDS011;20159;51.072;13.526;2022-11-25T08:11:07;4.85;;;3.58;;
33864;SDS011;20159;51.072;13.526;2022-11-25T08:13:37;5.85;;;3.67;;
33864;SDS011;20159;51.072;13.526;2022-11-25T08:16:03;5.25;;;3.38;;
33864;SDS011;20159;51.072;13.526;2022-11-25T08:18:29;4.97;;;3.20;;
33864;SDS011;20159;51.072;13.526;2022-11-25T08:20:58;5.93;;;3.83;;
33864;SDS011;20159;51.072;13.526;2022-11-25T08:23:24;5.90;;;3.63;;
33864;SDS011;20159;51.072;13.526;2022-11-25T08:25:50;7.78;;;3.78;;
33864;SDS011;20159;51.072;13.526;2022-11-25T08:28:16;7.80;;;3.58;;
33864;SDS011;20159;51.072;13.526;2022-11-25T08:30:41;6.55;;;3.17;;
33864;SDS011;20159;51.072;13.526;2022-11-25T08:33:07;6.13;;;3.60;;
33864;SDS011;20159;51.072;13.526;2022-11-25T08:35:32;5.88;;;3.50;;
33864;SDS011;20159;51.072;13.526;2022-11-25T08:38:02;6.03;;;3.50;;
33864;SDS011;20159;51.072;13.526;2022-11-25T08:40:29;5.43;;;3.25;;
33864;SDS011;20159;51.072;13.526;2022-11-25T08:42:56;5.63;;;3.03;;
33864;SDS011;20159;51.072;13.526;2022-11-25T08:45:21;4.80;;;3.10;;
33864;SDS011;20159;51.072;13.526;2022-11-25T08:47:47;4.25;;;2.60;;
33864;SDS011;20159;51.072;13.526;2022-11-25T08:50:13;6.35;;;2.30;;
33864;SDS011;20159;51.072;13.526;2022-11-25T08:52:40;4.38;;;2.00;;
33864;SDS011;20159;51.072;13.526;2022-11-25T08:55:06;6.28;;;2.45;;
33864;SDS011;20159;51.072;13.526;2022-11-25T08:57:32;4.07;;;2.03;;
33864;SDS011;20159;51.072;13.526;2022-11-25T08:59:58;4.45;;;1.65;;
33864;SDS011;20159;51.072;13.526;2022-11-25T09:02:23;4.32;;;1.67;;
33864;SDS011;20159;51.072;13.526;2022-11-25T09:04:49;6.10;;;1.90;;
33864;SDS011;20159;51.072;13.526;2022-11-25T09:07:15;6.82;;;1.67;;
33864;SDS011;20159;51.072;13.526;2022-11-25T09:09:40;4.72;;;1.65;;
33864;SDS011;20159;51.072;13.526;2022-11-25T09:12:06;3.63;;;1.67;;
33864;SDS011;20159;51.072;13.526;2022-11-25T09:14:32;5.25;;;1.60;;
33864;SDS011;20159;51.072;13.526;2022-11-25T09:16:57;5.80;;;2.28;;
33864;SDS011;20159;51.072;13.526;2022-11-25T09:19:23;7.57;;;3.53;;
33864;SDS011;20159;51.072;13.526;2022-11-25T09:21:48;4.28;;;2.10;;
33864;SDS011;20159;51.072;13.526;2022-11-25T09:24:14;5.38;;;1.52;;
33864;SDS011;20159;51.072;13.526;2022-11-25T09:26:39;5.10;;;1.70;;
33864;SDS011;20159;51.072;13.526;2022-11-25T09:29:06;7.72;;;2.35;;
33864;SDS011;20159;51.072;13.526;2022-11-25T09:31:32;6.82;;;1.92;;
33864;SDS011;20159;51.072;13.526;2022-11-25T09:33:57;6.85;;;1.90;;
33864;SDS011;20159;51.072;13.526;2022-11-25T09:36:23;7.13;;;1.98;;
33864;SDS011;20159;51.072;13.526;2022-11-25T09:38:49;6.13;;;1.88;;
33864;SDS011;20159;51.072;13.526;2022-11-25T09:47:14;4.05;;;1.63;;
33864;SDS011;20159;51.072;13.526;2022-11-25T09:52:39;6.55;;;1.60;;
33864;SDS011;20159;51.072;13.526;2022-11-25T09:55:21;5.50;;;1.60;;
33864;SDS011;20159;51.072;13.526;2022-11-25T09:58:04;5.43;;;1.48;;
33864;SDS011;20159;51.072;13.526;2022-11-25T10:00:50;5.68;;;1.85;;
33864;SDS011;20159;51.072;13.526;2022-11-25T10:06:20;5.72;;;1.73;;
33864;SDS011;20159;51.072;13.526;2022-11-25T10:08:49;8.07;;;2.22;;
33864;SDS011;20159;51.072;13.526;2022-11-25T10:14:23;5.28;;;1.70;;
33864;SDS011;20159;51.072;13.526;2022-11-25T10:16:51;4.78;;;1.65;;
33864;SDS011;20159;51.072;13.526;2022-11-25T10:19:40;6.47;;;2.00;;
33864;SDS011;20159;51.072;13.526;2022-11-25T10:22:25;6.53;;;2.03;;
33864;SDS011;20159;51.072;13.526;2022-11-25T10:24:53;7.93;;;1.88;;
33864;SDS011;20159;51.072;13.526;2022-11-25T10:33:20;5.07;;;1.88;;
33864;SDS011;20159;51.072;13.526;2022-11-25T10:35:54;5.22;;;1.70;;
33864;SDS011;20159;51.072;13.526;2022-11-25T10:41:20;6.53;;;2.23;;
33864;SDS011;20159;51.072;13.526;2022-11-25T10:43:48;5.63;;;2.25;;
33864;SDS011;20159;51.072;13.526;2022-11-25T10:54:06;4.72;;;1.63;;
33864;SDS011;20159;51.072;13.526;2022-11-25T10:56:56;5.38;;;1.77;;
33864;SDS011;20159;51.072;13.526;2022-11-25T11:02:18;7.90;;;2.10;;
33864;SDS011;20159;51.072;13.526;2022-11-25T11:07:22;5.18;;;2.05;;
33864;SDS011;20159;51.072;13.526;2022-11-25T11:09:49;4.50;;;2.10;;
33864;SDS011;20159;51.072;13.526;2022-11-25T11:12:22;6.78;;;2.15;;
33864;SDS011;20159;51.072;13.526;2022-11-25T11:14:49;5.97;;;2.20;;
33864;SDS011;20159;51.072;13.526;2022-11-25T11:17:33;4.07;;;2.47;;
33864;SDS011;20159;51.072;13.526;2022-11-25T11:22:31;6.13;;;2.05;;
33864;SDS011;20159;51.072;13.526;2022-11-25T11:25:08;4.65;;;1.55;;
33864;SDS011;20159;51.072;13.526;2022-11-25T11:27:38;6.18;;;1.80;;
33864;SDS011;20159;51.072;13.526;2022-11-25T11:30:09;5.10;;;1.75;;
33864;SDS011;20159;51.072;13.526;2022-11-25T11:32:38;3.78;;;1.48;;
33864;SDS011;20159;51.072;13.526;2022-11-25T11:37:46;5.50;;;1.88;;
33864;SDS011;20159;51.072;13.526;2022-11-25T11:40:22;3.53;;;1.42;;
33864;SDS011;20159;51.072;13.526;2022-11-25T11:45:54;3.95;;;1.80;;
33864;SDS011;20159;51.072;13.526;2022-11-25T11:48:38;2.97;;;1.30;;
33864;SDS011;20159;51.072;13.526;2022-11-25T11:54:17;3.63;;;1.63;;
33864;SDS011;20159;51.072;13.526;2022-11-25T11:59:47;5.43;;;1.70;;
33864;SDS011;20159;51.072;13.526;2022-11-25T12:07:31;3.95;;;1.65;;
33864;SDS011;20159;51.072;13.526;2022-11-25T12:10:15;4.53;;;1.55;;
33864;SDS011;20159;51.072;13.526;2022-11-25T12:24:13;12.75;;;7.90;;
33864;SDS011;20159;51.072;13.526;2022-11-25T12:26:59;5.55;;;3.70;;
33864;SDS011;20159;51.072;13.526;2022-11-25T12:29:47;6.15;;;2.40;;
33864;SDS011;20159;51.072;13.526;2022-11-25T12:35:02;3.65;;;1.75;;
33864;SDS011;20159;51.072;13.526;2022-11-25T12:40:23;3.28;;;1.83;;
33864;SDS011;20159;51.072;13.526;2022-11-25T12:43:09;3.60;;;1.65;;
33864;SDS011;20159;51.072;13.526;2022-11-25T12:46:04;5.38;;;2.08;;
33864;SDS011;20159;51.072;13.526;2022-11-25T12:48:39;4.07;;;1.80;;
33864;SDS011;20159;51.072;13.526;2022-11-25T12:51:12;4.97;;;1.80;;
33864;SDS011;20159;51.072;13.526;2022-11-25T12:54:09;4.32;;;2.03;;
33864;SDS011;20159;51.072;13.526;2022-11-25T13:00:08;4.03;;;1.98;;
33864;SDS011;20159;51.072;13.526;2022-11-25T13:17:41;5.88;;;2.70;;
33864;SDS011;20159;51.072;13.526;2022-11-25T13:25:29;3.33;;;1.73;;
33864;SDS011;20159;51.072;13.526;2022-11-25T13:27:56;6.95;;;2.58;;
33864;SDS011;20159;51.072;13.526;2022-11-25T13:32:56;11.73;;;2.30;;
33864;SDS011;20159;51.072;13.526;2022-11-25T13:37:50;2.97;;;1.73;;
33864;SDS011;20159;51.072;13.526;2022-11-25T13:42:52;3.33;;;1.60;;
33864;SDS011;20159;51.072;13.526;2022-11-25T13:45:32;5.10;;;1.92;;
33864;SDS011;20159;51.072;13.526;2022-11-25T13:48:21;3.22;;;1.70;;
33864;SDS011;20159;51.072;13.526;2022-11-25T13:50:51;5.00;;;2.03;;
33864;SDS011;20159;51.072;13.526;2022-11-25T13:53:36;6.43;;;2.13;;
33864;SDS011;20159;51.072;13.526;2022-11-25T14:01:34;4.10;;;2.30;;
33864;SDS011;20159;51.072;13.526;2022-11-25T14:04:03;3.60;;;1.98;;
33864;SDS011;20159;51.072;13.526;2022-11-25T14:11:52;2.65;;;1.73;;
33864;SDS011;20159;51.072;13.526;2022-11-25T14:17:31;3.13;;;1.90;;
33864;SDS011;20159;51.072;13.526;2022-11-25T14:20:12;2.65;;;1.90;;
33864;SDS011;20159;51.072;13.526;2022-11-25T14:23:12;5.70;;;2.00;;
33864;SDS011;20159;51.072;13.526;2022-11-25T14:25:52;2.50;;;1.50;;
33864;SDS011;20159;51.072;13.526;2022-11-25T14:28:28;4.65;;;2.15;;
33864;SDS011;20159;51.072;13.526;2022-11-25T14:31:21;4.20;;;2.05;;
33864;SDS011;20159;51.072;13.526;2022-11-25T14:33:56;3.80;;;1.67;;
33864;SDS011;20159;51.072;13.526;2022-11-25T14:36:29;3.65;;;1.70;;
33864;SDS011;20159;51.072;13.526;2022-11-25T14:39:43;3.25;;;1.92;;
33864;SDS011;20159;51.072;13.526;2022-11-25T14:41:58;3.20;;;1.60;;
33864;SDS011;20159;51.072;13.526;2022-11-25T14:44:49;4.45;;;1.80;;
33864;SDS011;20159;51.072;13.526;2022-11-25T14:47:20;3.55;;;1.90;;
33864;SDS011;20159;51.072;13.526;2022-11-25T14:49:48;3.67;;;2.22;;
33864;SDS011;20159;51.072;13.526;2022-11-25T14:52:19;3.85;;;1.80;;
33864;SDS011;20159;51.072;13.526;2022-11-25T14:54:48;3.92;;;2.10;;
33864;SDS011;20159;51.072;13.526;2022-11-25T14:57:34;3.97;;;2.10;;
33864;SDS011;20159;51.072;13.526;2022-11-25T15:00:11;6.85;;;2.20;;
33864;SDS011;20159;51.072;13.526;2022-11-25T15:02:58;3.65;;;1.85;;
33864;SDS011;20159;51.072;13.526;2022-11-25T15:05:26;2.90;;;1.90;;
33864;SDS011;20159;51.072;13.526;2022-11-25T15:10:28;4.50;;;2.20;;
33864;SDS011;20159;51.072;13.526;2022-11-25T15:13:00;3.70;;;1.90;;
33864;SDS011;20159;51.072;13.526;2022-11-25T15:15:38;3.92;;;1.90;;
33864;SDS011;20159;51.072;13.526;2022-11-25T15:18:05;4.03;;;2.13;;
33864;SDS011;20159;51.072;13.526;2022-11-25T15:20:32;5.30;;;2.38;;
33864;SDS011;20159;51.072;13.526;2022-11-25T15:22:59;4.05;;;2.58;;
33864;SDS011;20159;51.072;13.526;2022-11-25T15:25:25;5.80;;;3.25;;
33864;SDS011;20159;51.072;13.526;2022-11-25T15:27:51;5.32;;;3.88;;
33864;SDS011;20159;51.072;13.526;2022-11-25T15:30:21;6.97;;;4.43;;
33864;SDS011;20159;51.072;13.526;2022-11-25T15:32:49;5.00;;;3.97;;
33864;SDS011;20159;51.072;13.526;2022-11-25T15:35:17;6.88;;;4.13;;
33864;SDS011;20159;51.072;13.526;2022-11-25T15:37:45;7.82;;;4.45;;
33864;SDS011;20159;51.072;13.526;2022-11-25T15:40:35;6.50;;;4.20;;
33864;SDS011;20159;51.072;13.526;2022-11-25T15:43:17;6.50;;;3.85;;
33864;SDS011;20159;51.072;13.526;2022-11-25T15:45:49;7.38;;;4.68;;
33864;SDS011;20159;51.072;13.526;2022-11-25T15:48:22;5.60;;;4.55;;
33864;SDS011;20159;51.072;13.526;2022-11-25T15:51:10;7.55;;;4.55;;
33864;SDS011;20159;51.072;13.526;2022-11-25T15:53:52;7.38;;;5.32;;
33864;SDS011;20159;51.072;13.526;2022-11-25T15:56:20;7.45;;;5.32;;
33864;SDS011;20159;51.072;13.526;2022-11-25T15:58:48;6.88;;;5.13;;
33864;SDS011;20159;51.072;13.526;2022-11-25T16:03:39;35.67;;;29.00;;
33864;SDS011;20159;51.072;13.526;2022-11-25T16:06:17;24.70;;;19.35;;
33864;SDS011;20159;51.072;13.526;2022-11-25T16:08:52;13.05;;;9.48;;
33864;SDS011;20159;51.072;13.526;2022-11-25T16:11:19;9.25;;;6.68;;
33864;SDS011;20159;51.072;13.526;2022-11-25T16:13:47;6.13;;;4.55;;
33864;SDS011;20159;51.072;13.526;2022-11-25T16:24:10;6.15;;;3.90;;
33864;SDS011;20159;51.072;13.526;2022-11-25T16:26:54;6.07;;;4.00;;
33864;SDS011;20159;51.072;13.526;2022-11-25T16:29:29;5.13;;;4.07;;
33864;SDS011;20159;51.072;13.526;2022-11-25T16:32:04;4.63;;;3.78;;
33864;SDS011;20159;51.072;13.526;2022-11-25T16:34:38;6.05;;;4.05;;
33864;SDS011;20159;51.072;13.526;2022-11-25T16:37:04;8.07;;;4.40;;
33864;SDS011;20159;51.072;13.526;2022-11-25T16:39:29;5.90;;;3.78;;
33864;SDS011;20159;51.072;13.526;2022-11-25T16:41:56;5.03;;;3.85;;
33864;SDS011;20159;51.072;13.526;2022-11-25T16:44:23;5.00;;;3.83;;
33864;SDS011;20159;51.072;13.526;2022-11-25T16:46:50;7.50;;;4.13;;
33864;SDS011;20159;51.072;13.526;2022-11-25T16:49:17;7.30;;;4.18;;
33864;SDS011;20159;51.072;13.526;2022-11-25T16:51:44;5.97;;;3.90;;
33864;SDS011;20159;51.072;13.526;2022-11-25T16:54:09;7.25;;;4.22;;
33864;SDS011;20159;51.072;13.526;2022-11-25T16:56:36;7.20;;;4.80;;
33864;SDS011;20159;51.072;13.526;2022-11-25T16:59:05;8.60;;;4.88;;
33864;SDS011;20159;51.072;13.526;2022-11-25T17:01:37;5.65;;;4.55;;
33864;SDS011;20159;51.072;13.526;2022-11-25T17:04:03;6.13;;;4.60;;